Quail, Texas
Current Conditions -  °F | °C
As of 7:53 AM on Tuesday 21 Oct 2014 (Local Time) from KCDS Reporting Station
Clear Clear  
Wind Chill: 58°   Ceiling: Unl
Heat Index: 58°   Visibility: 10mi
Dew Point: 53°   Wind: 6mph
Humidity: 84%   Direction: 260°W
Pressure: 30.09"   Gusts: NA
Location:  34.91°N, 100.4°W
Report Text: KCDS 211253Z AUTO 26005KT 10SM CLR 14/12 A3009 RMK AO2 SLP174 T01440117
Loading
Personal Weather Stations






























Interactive Weather Map New forecast layout! Learn more

10-Day Weather Forecast

Advertisements
Track Severe Weather on mobile